N2406 EDDS-EKCH
Flight info
| Callsign | N2406 |
|---|---|
| Flight time | N/A |
| Altitude | 26000 |
| Route | OKIBA4B OKIBA N851 RIMKI Z99 LOHRE/N0285F270 DCT MASEK DCT BERXO DCT MAKEL N851 GESKA Z711 MONAK |
| Aircraft | B60T/L-SDFGRY/C |
Departure
| Time | 2026-05-04 19:05 |
|---|---|
| Airport | Stuttgart Airport (EDDS) |
Arrival
| Time | N/A |
|---|---|
| Airport | Copenhagen Kastrup Airport (EKCH) |
| Time | Latitude | Longitude | Altitude | Speed | Heading |
|---|---|---|---|---|---|
| 2026-05-04 18:34 | 48.69130 | 9.21262 | 1260 ft | 0 kts | 165° |
| 2026-05-04 18:59 | 48.69116 | 9.21280 | 1263 ft | 7 kts | 106° |
| 2026-05-04 19:00 | 48.69097 | 9.21393 | 1258 ft | 13 kts | 73° |
| 2026-05-04 19:00 | 48.69120 | 9.21516 | 1253 ft | 14 kts | 77° |
| 2026-05-04 19:00 | 48.69149 | 9.21666 | 1260 ft | 16 kts | 74° |
| 2026-05-04 19:00 | 48.69181 | 9.21834 | 1251 ft | 17 kts | 72° |
| 2026-05-04 19:01 | 48.69214 | 9.22013 | 1248 ft | 18 kts | 74° |
| 2026-05-04 19:01 | 48.69248 | 9.22193 | 1237 ft | 19 kts | 73° |
| 2026-05-04 19:01 | 48.69287 | 9.22395 | 1232 ft | 21 kts | 74° |
| 2026-05-04 19:01 | 48.69328 | 9.22610 | 1228 ft | 22 kts | 75° |
| 2026-05-04 19:02 | 48.69370 | 9.22834 | 1223 ft | 22 kts | 73° |
| 2026-05-04 19:02 | 48.69406 | 9.23043 | 1219 ft | 16 kts | 90° |
| 2026-05-04 19:02 | 48.69362 | 9.23152 | 1214 ft | 11 kts | 156° |
| 2026-05-04 19:02 | 48.69288 | 9.23189 | 1209 ft | 9 kts | 163° |
| 2026-05-04 19:03 | 48.69285 | 9.23190 | 1209 ft | 0 kts | 163° |
| 2026-05-04 19:04 | 48.69284 | 9.23191 | 1209 ft | 1 kts | 163° |
| 2026-05-04 19:04 | 48.69276 | 9.23194 | 1208 ft | 0 kts | 165° |
| 2026-05-04 19:04 | 48.69234 | 9.23211 | 1207 ft | 16 kts | 165° |
| 2026-05-04 19:04 | 48.69131 | 9.22945 | 1212 ft | 62 kts | 253° |
| 2026-05-04 19:05 | 48.68937 | 9.21943 | 1246 ft | 128 kts | 256° |
| 2026-05-04 19:05 | 48.68644 | 9.20603 | 1745 ft | 142 kts | 255° |
| 2026-05-04 19:05 | 48.68371 | 9.18985 | 1966 ft | 175 kts | 259° |
| 2026-05-04 19:05 | 48.68165 | 9.17123 | 2360 ft | 179 kts | 267° |
| 2026-05-04 19:06 | 48.67997 | 9.15289 | 2957 ft | 173 kts | 255° |
| 2026-05-04 19:06 | 48.67540 | 9.13619 | 3584 ft | 171 kts | 248° |
| 2026-05-04 19:06 | 48.67126 | 9.11941 | 4181 ft | 170 kts | 259° |
| 2026-05-04 19:06 | 48.67309 | 9.10216 | 4746 ft | 171 kts | 301° |
| 2026-05-04 19:07 | 48.68023 | 9.08645 | 4940 ft | 194 kts | 306° |
| 2026-05-04 19:07 | 48.68928 | 9.07011 | 4964 ft | 210 kts | 320° |
| 2026-05-04 19:07 | 48.70261 | 9.06057 | 4971 ft | 217 kts | 348° |
| 2026-05-04 19:07 | 48.71706 | 9.05494 | 4967 ft | 198 kts | 342° |
| 2026-05-04 19:08 | 48.72927 | 9.04839 | 4969 ft | 187 kts | 340° |
| 2026-05-04 19:08 | 48.74165 | 9.04163 | 4969 ft | 191 kts | 340° |
| 2026-05-04 19:08 | 48.75453 | 9.03634 | 4974 ft | 193 kts | 355° |
| 2026-05-04 19:08 | 48.76771 | 9.03950 | 4975 ft | 194 kts | 23° |
| 2026-05-04 19:09 | 48.77859 | 9.05126 | 4980 ft | 193 kts | 49° |
| 2026-05-04 19:09 | 48.78647 | 9.06774 | 4980 ft | 193 kts | 56° |
| 2026-05-04 19:09 | 48.79417 | 9.08447 | 4978 ft | 194 kts | 56° |
| 2026-05-04 19:09 | 48.80195 | 9.10119 | 4969 ft | 195 kts | 55° |
| 2026-05-04 19:10 | 48.80977 | 9.11805 | 4946 ft | 194 kts | 56° |
| 2026-05-04 19:10 | 48.81726 | 9.13420 | 5440 ft | 186 kts | 56° |
| 2026-05-04 19:10 | 48.82473 | 9.15029 | 6001 ft | 188 kts | 57° |
| 2026-05-04 19:10 | 48.83228 | 9.16650 | 6570 ft | 189 kts | 57° |
| 2026-05-04 19:11 | 48.83978 | 9.18262 | 7118 ft | 189 kts | 57° |
| 2026-05-04 19:11 | 48.84748 | 9.19918 | 7684 ft | 190 kts | 58° |
| 2026-05-04 19:11 | 48.85509 | 9.21558 | 8238 ft | 190 kts | 58° |
| 2026-05-04 19:11 | 48.86273 | 9.23207 | 8789 ft | 191 kts | 58° |
| 2026-05-04 19:12 | 48.87029 | 9.24834 | 9349 ft | 192 kts | 58° |
| 2026-05-04 19:12 | 48.88572 | 9.28166 | 10423 ft | 194 kts | 58° |
| 2026-05-04 19:12 | 48.89347 | 9.29841 | 10943 ft | 194 kts | 58° |
| 2026-05-04 19:13 | 48.90123 | 9.31518 | 11468 ft | 194 kts | 58° |
| 2026-05-04 19:13 | 48.90717 | 9.32573 | 11814 ft | 196 kts | 44° |
| 2026-05-04 19:13 | 48.91907 | 9.33630 | 12354 ft | 203 kts | 18° |
| 2026-05-04 19:13 | 48.93292 | 9.33863 | 12940 ft | 205 kts | 353° |
| 2026-05-04 19:14 | 48.94734 | 9.33660 | 13570 ft | 206 kts | 355° |
| 2026-05-04 19:14 | 48.96148 | 9.33583 | 14127 ft | 206 kts | 356° |
| 2026-05-04 19:14 | 48.97584 | 9.33506 | 14667 ft | 207 kts | 356° |
| 2026-05-04 19:14 | 48.99022 | 9.33413 | 15207 ft | 207 kts | 355° |
| 2026-05-04 19:15 | 49.00463 | 9.33308 | 15738 ft | 208 kts | 355° |
| 2026-05-04 19:15 | 49.01906 | 9.33195 | 16272 ft | 208 kts | 355° |
| 2026-05-04 19:15 | 49.03839 | 9.33041 | 16988 ft | 208 kts | 354° |
| 2026-05-04 19:15 | 49.04798 | 9.32963 | 17341 ft | 209 kts | 354° |
| 2026-05-04 19:16 | 49.06249 | 9.32845 | 17882 ft | 209 kts | 354° |
| 2026-05-04 19:16 | 49.07704 | 9.32727 | 18397 ft | 210 kts | 354° |
| 2026-05-04 19:16 | 49.09168 | 9.32610 | 18862 ft | 210 kts | 354° |
| 2026-05-04 19:16 | 49.10624 | 9.32493 | 19334 ft | 211 kts | 354° |
| 2026-05-04 19:17 | 49.12095 | 9.32375 | 19817 ft | 212 kts | 353° |
| 2026-05-04 19:17 | 49.13572 | 9.32256 | 20310 ft | 213 kts | 353° |
| 2026-05-04 19:17 | 49.15051 | 9.32137 | 20815 ft | 213 kts | 353° |
| 2026-05-04 19:17 | 49.16531 | 9.32019 | 21331 ft | 213 kts | 353° |
| 2026-05-04 19:18 | 49.18017 | 9.31899 | 21820 ft | 214 kts | 352° |
| 2026-05-04 19:18 | 49.19508 | 9.31778 | 22326 ft | 215 kts | 352° |
| 2026-05-04 19:18 | 49.21000 | 9.31658 | 22828 ft | 215 kts | 352° |
| 2026-05-04 19:18 | 49.22495 | 9.31539 | 23328 ft | 215 kts | 352° |
| 2026-05-04 19:19 | 49.23991 | 9.31424 | 23779 ft | 215 kts | 352° |
| 2026-05-04 19:19 | 49.25488 | 9.31309 | 24196 ft | 216 kts | 352° |
| 2026-05-04 19:19 | 49.26987 | 9.31193 | 24610 ft | 216 kts | 352° |
| 2026-05-04 19:19 | 49.28487 | 9.31077 | 25020 ft | 216 kts | 352° |
| 2026-05-04 19:20 | 49.29989 | 9.30959 | 25430 ft | 216 kts | 351° |
| 2026-05-04 19:20 | 49.31494 | 9.30841 | 25848 ft | 217 kts | 351° |
| 2026-05-04 19:20 | 49.33050 | 9.30713 | 25947 ft | 232 kts | 352° |
| 2026-05-04 19:20 | 49.34714 | 9.30590 | 25968 ft | 247 kts | 354° |
| 2026-05-04 19:21 | 49.36486 | 9.30683 | 25980 ft | 262 kts | 2° |
| 2026-05-04 19:21 | 49.38338 | 9.31012 | 25985 ft | 273 kts | 2° |
| 2026-05-04 19:21 | 49.40253 | 9.31310 | 25981 ft | 280 kts | 2° |
| 2026-05-04 19:21 | 49.42212 | 9.31597 | 25978 ft | 285 kts | 2° |
| 2026-05-04 19:22 | 49.44201 | 9.31885 | 25976 ft | 289 kts | 2° |
| 2026-05-04 19:22 | 49.46214 | 9.32178 | 25975 ft | 292 kts | 2° |
| 2026-05-04 19:22 | 49.48243 | 9.32477 | 25977 ft | 294 kts | 2° |
| 2026-05-04 19:22 | 49.50286 | 9.32779 | 25977 ft | 296 kts | 2° |
| 2026-05-04 19:23 | 49.52341 | 9.33085 | 25978 ft | 297 kts | 2° |
| 2026-05-04 19:23 | 49.54400 | 9.33392 | 25978 ft | 298 kts | 2° |
| 2026-05-04 19:23 | 49.56465 | 9.33699 | 25977 ft | 298 kts | 2° |
| 2026-05-04 19:23 | 49.58533 | 9.34007 | 25978 ft | 299 kts | 2° |
| 2026-05-04 19:24 | 49.60602 | 9.34316 | 25984 ft | 299 kts | 2° |
| 2026-05-04 19:24 | 49.62673 | 9.34626 | 25982 ft | 299 kts | 2° |
| 2026-05-04 19:24 | 49.64743 | 9.34933 | 25982 ft | 299 kts | 2° |
| 2026-05-04 19:24 | 49.66784 | 9.35238 | 25982 ft | 299 kts | 2° |
| 2026-05-04 19:25 | 49.68838 | 9.35547 | 25981 ft | 293 kts | 2° |
| 2026-05-04 19:25 | 49.70876 | 9.35852 | 25984 ft | 295 kts | 2° |
| 2026-05-04 19:25 | 49.72929 | 9.36158 | 25983 ft | 297 kts | 2° |
| 2026-05-04 19:25 | 49.74985 | 9.36596 | 25982 ft | 300 kts | 7° |
| 2026-05-04 19:26 | 49.77029 | 9.37268 | 25984 ft | 301 kts | 11° |
| 2026-05-04 19:26 | 49.79066 | 9.38051 | 25985 ft | 302 kts | 11° |
| 2026-05-04 19:26 | 49.81108 | 9.38834 | 25985 ft | 303 kts | 11° |
| 2026-05-04 19:26 | 49.83151 | 9.39619 | 25985 ft | 303 kts | 12° |
| 2026-05-04 19:27 | 49.85194 | 9.40405 | 25989 ft | 302 kts | 11° |
| 2026-05-04 19:27 | 49.87238 | 9.41192 | 25985 ft | 302 kts | 11° |
| 2026-05-04 19:27 | 49.89274 | 9.41978 | 25984 ft | 302 kts | 11° |
| 2026-05-04 19:27 | 49.91313 | 9.42763 | 25986 ft | 302 kts | 11° |
| 2026-05-04 19:28 | 49.93349 | 9.43548 | 25980 ft | 301 kts | 11° |
| 2026-05-04 19:28 | 49.95383 | 9.44331 | 25981 ft | 301 kts | 11° |
| 2026-05-04 19:28 | 49.97417 | 9.45114 | 25981 ft | 301 kts | 11° |
| 2026-05-04 19:28 | 49.99451 | 9.45899 | 25981 ft | 301 kts | 12° |
| 2026-05-04 19:29 | 50.01482 | 9.46686 | 25980 ft | 301 kts | 11° |
| 2026-05-04 19:29 | 50.03513 | 9.47472 | 25991 ft | 301 kts | 12° |
| 2026-05-04 19:29 | 50.05542 | 9.48237 | 25985 ft | 300 kts | 9° |
| 2026-05-04 19:29 | 50.07590 | 9.48811 | 25986 ft | 298 kts | 5° |
| 2026-05-04 19:30 | 50.09649 | 9.49172 | 25984 ft | 298 kts | 2° |
| 2026-05-04 19:30 | 50.11711 | 9.49509 | 25981 ft | 298 kts | 3° |
| 2026-05-04 19:30 | 50.13770 | 9.49853 | 25986 ft | 297 kts | 3° |
| 2026-05-04 19:30 | 50.15825 | 9.50207 | 25985 ft | 297 kts | 3° |
| 2026-05-04 19:31 | 50.17882 | 9.50560 | 25984 ft | 297 kts | 3° |
| 2026-05-04 19:31 | 50.19936 | 9.50911 | 25981 ft | 297 kts | 3° |
| 2026-05-04 19:31 | 50.21987 | 9.51258 | 25986 ft | 296 kts | 3° |
| 2026-05-04 19:31 | 50.24036 | 9.51604 | 25985 ft | 296 kts | 3° |
| 2026-05-04 19:32 | 50.26085 | 9.51949 | 25990 ft | 296 kts | 3° |
| 2026-05-04 19:32 | 50.28106 | 9.52287 | 25991 ft | 296 kts | 3° |
| 2026-05-04 19:32 | 50.30154 | 9.52631 | 25991 ft | 296 kts | 3° |
| 2026-05-04 19:32 | 50.32231 | 9.52982 | 25986 ft | 296 kts | 3° |
| 2026-05-04 19:33 | 50.34314 | 9.53334 | 25988 ft | 296 kts | 3° |
| 2026-05-04 19:33 | 50.36303 | 9.53669 | 25989 ft | 296 kts | 3° |
| 2026-05-04 19:33 | 50.38352 | 9.54016 | 25988 ft | 296 kts | 3° |
| 2026-05-04 19:33 | 50.40399 | 9.54362 | 25986 ft | 296 kts | 3° |
| 2026-05-04 19:34 | 50.42442 | 9.54707 | 25989 ft | 296 kts | 3° |
| 2026-05-04 19:34 | 50.44488 | 9.55053 | 25989 ft | 296 kts | 3° |
| 2026-05-04 19:34 | 50.46530 | 9.55399 | 25988 ft | 295 kts | 3° |
| 2026-05-04 19:34 | 50.48575 | 9.55747 | 26002 ft | 295 kts | 2° |
| 2026-05-04 19:35 | 50.50619 | 9.56094 | 25992 ft | 295 kts | 2° |
| 2026-05-04 19:35 | 50.52662 | 9.56441 | 25989 ft | 295 kts | 2° |
| 2026-05-04 19:35 | 50.54706 | 9.56788 | 25990 ft | 295 kts | 2° |
| 2026-05-04 19:35 | 50.56747 | 9.57135 | 25988 ft | 295 kts | 2° |